Time;durP1;ratioP1;P1;durP2;ratioP2;P2;SDS_P1;SDS_P2;PMS_P1;PMS_P2;Temp;Humidity;BMP_temperature;BMP_pressure;BME280_temperature;BME280_humidity;BME280_pressure;Samples;Min_cycle;Max_cycle;Signal;HPM_P1;HPM_P2
2022/05/18 00:04:54;;;;;;;21.42;13.75;;;;;;;;;;10448369;28;20041;-70
2022/05/18 00:09:56;;;;;;;20.67;13.25;;;;;;;;;;10447756;28;20156;-70
2022/05/18 00:14:58;;;;;;;21.02;13.95;;;;;;;;;;10438516;28;20052;-70
2022/05/18 00:19:59;;;;;;;25.98;15.00;;;;;;;;;;10456236;28;20044;-69
2022/05/18 00:25:01;;;;;;;21.30;13.85;;;;;;;;;;10434808;28;20073;-69
2022/05/18 00:30:03;;;;;;;19.23;13.30;;;;;;;;;;10427997;28;20053;-70
2022/05/18 00:35:05;;;;;;;20.67;12.52;;;;;;;;;;10447893;28;20056;-71
2022/05/18 00:40:08;;;;;;;23.48;13.25;;;;;;;;;;10443584;28;20052;-71
2022/05/18 00:45:10;;;;;;;18.77;12.80;;;;;;;;;;10427371;28;20053;-70
2022/05/18 00:50:22;;;;;;;22.42;12.50;;;;;;;;;;10432217;28;20444;-70
2022/05/18 00:55:25;;;;;;;20.20;11.73;;;;;;;;;;10429859;28;20076;-70
2022/05/18 01:00:26;;;;;;;22.40;13.32;;;;;;;;;;10440614;28;20088;-71
2022/05/18 01:05:31;;;;;;;18.55;12.15;;;;;;;;;;10465170;28;20544;-69
2022/05/18 01:10:33;;;;;;;21.38;12.00;;;;;;;;;;10444627;28;20045;-70
2022/05/18 01:15:34;;;;;;;21.08;11.27;;;;;;;;;;10449113;28;20490;-71
2022/05/18 01:20:37;;;;;;;19.17;10.68;;;;;;;;;;10445524;28;20071;-69
2022/05/18 01:25:45;;;;;;;18.42;11.07;;;;;;;;;;10447718;28;20041;-71
2022/05/18 01:30:47;;;;;;;21.13;10.35;;;;;;;;;;10450843;28;20472;-70
2022/05/18 01:35:49;;;;;;;20.63;10.82;;;;;;;;;;10458267;28;20531;-70
2022/05/18 01:41:01;;;;;;;17.35;10.35;;;;;;;;;;10434202;28;20069;-71
2022/05/18 01:46:05;;;;;;;16.88;9.98;;;;;;;;;;10446280;28;20480;-70
2022/05/18 01:51:08;;;;;;;16.23;9.50;;;;;;;;;;10449922;28;20045;-71
2022/05/18 01:56:09;;;;;;;21.08;10.00;;;;;;;;;;10445340;28;20045;-69
2022/05/18 02:01:11;;;;;;;17.73;9.25;;;;;;;;;;10445602;28;20059;-71
2022/05/18 02:06:13;;;;;;;15.10;9.15;;;;;;;;;;10446572;28;20049;-71
2022/05/18 02:11:15;;;;;;;21.05;9.30;;;;;;;;;;10436775;28;20052;-70
2022/05/18 02:16:18;;;;;;;18.25;8.77;;;;;;;;;;10439327;28;20063;-71
2022/05/18 02:21:19;;;;;;;17.90;9.32;;;;;;;;;;10450229;28;20060;-71
2022/05/18 02:26:21;;;;;;;15.32;8.90;;;;;;;;;;10451095;28;20055;-70
2022/05/18 02:31:22;;;;;;;17.40;9.05;;;;;;;;;;10431012;28;20500;-70
2022/05/18 02:36:24;;;;;;;16.80;8.98;;;;;;;;;;10443424;28;20037;-70
2022/05/18 02:41:25;;;;;;;15.60;9.35;;;;;;;;;;10450952;28;20230;-71
2022/05/18 02:46:27;;;;;;;24.05;9.13;;;;;;;;;;10436877;28;20049;-70
2022/05/18 02:51:30;;;;;;;18.35;9.65;;;;;;;;;;10455143;28;20061;-69
2022/05/18 02:56:32;;;;;;;18.48;8.88;;;;;;;;;;10459018;28;20049;-71
2022/05/18 03:01:34;;;;;;;14.18;8.73;;;;;;;;;;10460966;28;20368;-70
2022/05/18 03:06:35;;;;;;;16.33;8.93;;;;;;;;;;10438315;28;20092;-70
2022/05/18 03:11:37;;;;;;;16.05;8.35;;;;;;;;;;10451779;28;20412;-70
2022/05/18 03:16:39;;;;;;;16.00;8.15;;;;;;;;;;10453581;28;20045;-71
2022/05/18 03:27:00;;;;;;;15.13;9.30;;;;;;;;;;10450900;28;20051;-70
2022/05/18 03:32:02;;;;;;;16.38;8.70;;;;;;;;;;10464148;28;20507;-69
2022/05/18 03:37:03;;;;;;;19.67;9.35;;;;;;;;;;10454933;28;20045;-71
2022/05/18 03:42:06;;;;;;;15.18;9.80;;;;;;;;;;10454780;28;20041;-70
2022/05/18 03:47:09;;;;;;;18.90;9.50;;;;;;;;;;10444558;28;20049;-70
2022/05/18 03:52:11;;;;;;;16.85;9.82;;;;;;;;;;10449040;28;20053;-69
2022/05/18 03:57:12;;;;;;;16.38;10.13;;;;;;;;;;10451993;28;20112;-69
2022/05/18 04:02:13;;;;;;;18.83;10.27;;;;;;;;;;10452771;28;20039;-71
2022/05/18 04:07:15;;;;;;;15.27;10.90;;;;;;;;;;10436114;28;20076;-69
2022/05/18 04:12:16;;;;;;;19.92;10.73;;;;;;;;;;10447598;28;20049;-71
2022/05/18 04:17:18;;;;;;;16.35;11.27;;;;;;;;;;10430157;28;20501;-69
2022/05/18 04:22:21;;;;;;;26.45;10.60;;;;;;;;;;10446660;28;20511;-70
2022/05/18 04:27:22;;;;;;;23.67;11.18;;;;;;;;;;10447676;28;20404;-70
2022/05/18 04:32:24;;;;;;;19.33;12.15;;;;;;;;;;10456747;28;20485;-70
2022/05/18 04:37:25;;;;;;;19.10;11.60;;;;;;;;;;10457003;28;20056;-69
2022/05/18 04:42:26;;;;;;;19.33;11.73;;;;;;;;;;10441138;28;20049;-70
2022/05/18 04:47:28;;;;;;;19.25;12.27;;;;;;;;;;10445942;28;20052;-71
2022/05/18 04:52:29;;;;;;;16.70;12.13;;;;;;;;;;10445166;28;20049;-71
2022/05/18 04:57:31;;;;;;;18.05;11.52;;;;;;;;;;10438125;28;20497;-70
2022/05/18 05:02:36;;;;;;;21.15;12.10;;;;;;;;;;10452751;28;20132;-68
2022/05/18 05:07:37;;;;;;;17.42;11.85;;;;;;;;;;10447418;28;20323;-71
2022/05/18 05:12:39;;;;;;;18.80;10.70;;;;;;;;;;10430337;28;20057;-71
2022/05/18 05:17:40;;;;;;;17.33;11.32;;;;;;;;;;10438448;28;20079;-71
2022/05/18 05:22:42;;;;;;;14.70;9.98;;;;;;;;;;10432426;28;20048;-70
2022/05/18 05:27:43;;;;;;;15.73;10.50;;;;;;;;;;10430752;28;20040;-71
2022/05/18 05:32:45;;;;;;;16.42;10.20;;;;;;;;;;10447907;28;20044;-70
2022/05/18 05:37:46;;;;;;;21.38;9.00;;;;;;;;;;10427477;28;20045;-71
2022/05/18 05:42:48;;;;;;;14.73;9.95;;;;;;;;;;10447696;28;20136;-70
2022/05/18 05:47:49;;;;;;;16.05;9.35;;;;;;;;;;10425538;28;20045;-69
2022/05/18 05:52:53;;;;;;;13.38;7.80;;;;;;;;;;10416217;28;20198;-73
2022/05/18 05:57:55;;;;;;;15.07;8.00;;;;;;;;;;10450057;28;20047;-63
2022/05/18 06:02:57;;;;;;;14.90;8.23;;;;;;;;;;10456901;28;20040;-70
2022/05/18 06:07:58;;;;;;;13.75;8.35;;;;;;;;;;10423482;28;20128;-69
2022/05/18 06:13:06;;;;;;;14.98;7.15;;;;;;;;;;10440459;28;20055;-69
2022/05/18 06:18:08;;;;;;;12.10;6.53;;;;;;;;;;10436853;28;20052;-69
2022/05/18 06:23:09;;;;;;;12.23;7.03;;;;;;;;;;10426727;28;20599;-70
2022/05/18 06:28:11;;;;;;;13.00;6.43;;;;;;;;;;10438322;28;20047;-71
2022/05/18 06:33:12;;;;;;;10.75;5.80;;;;;;;;;;10429673;28;20052;-71
2022/05/18 06:38:14;;;;;;;11.32;6.28;;;;;;;;;;10446493;28;20059;-69
2022/05/18 06:43:17;;;;;;;17.92;6.65;;;;;;;;;;10421159;28;20051;-70
2022/05/18 06:48:19;;;;;;;9.90;4.93;;;;;;;;;;10413155;28;20631;-70
2022/05/18 06:53:41;;;;;;;12.73;4.20;;;;;;;;;;10443293;28;20052;-71
2022/05/18 06:58:42;;;;;;;8.68;4.32;;;;;;;;;;10445402;28;20106;-71
2022/05/18 07:03:50;;;;;;;8.82;4.32;;;;;;;;;;10404699;28;20123;-71
2022/05/18 07:08:57;;;;;;;12.27;4.65;;;;;;;;;;10424315;28;20557;-70
2022/05/18 07:13:59;;;;;;;8.85;4.18;;;;;;;;;;10404328;28;20076;-70
2022/05/18 07:19:01;;;;;;;9.98;3.72;;;;;;;;;;10416784;28;20044;-69
2022/05/18 07:24:02;;;;;;;8.30;3.55;;;;;;;;;;10413523;28;20042;-68
2022/05/18 07:29:05;;;;;;;8.30;3.67;;;;;;;;;;10437574;28;20045;-70
2022/05/18 07:34:06;;;;;;;8.05;3.80;;;;;;;;;;10457635;28;20055;-70
2022/05/18 07:39:08;;;;;;;7.60;3.35;;;;;;;;;;10442625;28;20033;-70
2022/05/18 07:44:09;;;;;;;9.85;3.40;;;;;;;;;;10430826;28;20051;-70
2022/05/18 07:49:11;;;;;;;9.55;3.67;;;;;;;;;;10442178;28;20069;-70
2022/05/18 07:54:13;;;;;;;9.82;3.67;;;;;;;;;;10448157;28;20469;-69
2022/05/18 07:59:14;;;;;;;8.00;3.63;;;;;;;;;;10449498;28;20048;-70
2022/05/18 08:04:16;;;;;;;6.38;3.30;;;;;;;;;;10462047;28;20204;-69
2022/05/18 08:09:22;;;;;;;14.18;4.47;;;;;;;;;;10451751;28;20044;-73
2022/05/18 08:19:44;;;;;;;10.48;3.47;;;;;;;;;;10421255;28;20132;-70
2022/05/18 08:24:45;;;;;;;12.27;3.75;;;;;;;;;;10442329;28;20148;-72
2022/05/18 08:29:47;;;;;;;8.50;2.85;;;;;;;;;;10440649;28;20052;-72
2022/05/18 08:34:48;;;;;;;10.07;3.30;;;;;;;;;;10451534;28;20588;-72
2022/05/18 08:39:50;;;;;;;6.93;2.97;;;;;;;;;;10438869;28;20128;-73
2022/05/18 08:44:51;;;;;;;8.05;3.03;;;;;;;;;;10397419;28;20146;-71
2022/05/18 08:49:58;;;;;;;5.85;3.03;;;;;;;;;;10420147;28;20106;-72
2022/05/18 08:55:06;;;;;;;11.23;3.50;;;;;;;;;;10431877;28;20060;-71
2022/05/18 09:00:10;;;;;;;9.60;3.40;;;;;;;;;;10429911;28;20045;-73
2022/05/18 09:05:16;;;;;;;8.75;2.85;;;;;;;;;;10428744;28;20156;-71
2022/05/18 09:10:46;;;;;;;8.82;3.75;;;;;;;;;;10425056;28;20106;-71
2022/05/18 09:16:07;;;;;;;8.88;3.35;;;;;;;;;;10420302;28;20057;-69
2022/05/18 09:21:08;;;;;;;8.43;3.17;;;;;;;;;;10440034;28;20042;-70
2022/05/18 09:26:27;;;;;;;6.43;2.40;;;;;;;;;;10436625;28;20087;-70
2022/05/18 09:31:40;;;;;;;6.18;3.08;;;;;;;;;;10438990;28;20052;-70
2022/05/18 09:36:44;;;;;;;8.30;2.67;;;;;;;;;;10440918;28;20108;-71
2022/05/18 09:42:01;;;;;;;6.93;2.70;;;;;;;;;;10452658;28;20135;-71
2022/05/18 09:47:03;;;;;;;6.72;2.33;;;;;;;;;;10441490;28;20132;-72
2022/05/18 09:52:05;;;;;;;5.82;2.55;;;;;;;;;;10435777;28;20738;-73
2022/05/18 09:57:10;;;;;;;6.18;2.03;;;;;;;;;;10445195;28;20040;-71
2022/05/18 10:07:49;;;;;;;6.88;2.83;;;;;;;;;;10407501;28;20044;-71
2022/05/18 10:12:53;;;;;;;8.27;2.20;;;;;;;;;;10419998;28;20057;-70
2022/05/18 10:17:56;;;;;;;6.65;2.55;;;;;;;;;;10431631;28;20040;-71
2022/05/18 10:22:58;;;;;;;9.13;2.47;;;;;;;;;;10414685;28;20056;-74
2022/05/18 10:28:10;;;;;;;6.90;2.15;;;;;;;;;;10434508;28;20076;-70
2022/05/18 10:33:18;;;;;;;5.88;1.63;;;;;;;;;;10446223;28;20049;-69
2022/05/18 10:38:22;;;;;;;7.20;1.90;;;;;;;;;;10426642;28;20064;-71
2022/05/18 10:43:33;;;;;;;6.13;2.10;;;;;;;;;;10429977;28;20051;-71
2022/05/18 10:48:55;;;;;;;13.25;1.90;;;;;;;;;;10426225;28;20049;-72
2022/05/18 10:54:06;;;;;;;5.35;2.03;;;;;;;;;;10421106;28;20049;-71
2022/05/18 10:59:10;;;;;;;4.93;1.77;;;;;;;;;;10444697;28;20049;-71
2022/05/18 11:04:38;;;;;;;5.32;1.80;;;;;;;;;;10446725;28;20053;-71
2022/05/18 11:09:40;;;;;;;8.38;1.98;;;;;;;;;;10422730;28;20038;-72
2022/05/18 11:14:47;;;;;;;5.50;2.10;;;;;;;;;;10440309;28;20056;-72
2022/05/18 11:19:49;;;;;;;6.18;2.75;;;;;;;;;;10430349;28;20690;-72
2022/05/18 11:24:51;;;;;;;5.68;2.30;;;;;;;;;;10434806;28;20048;-82
2022/05/18 11:30:13;;;;;;;8.23;3.13;;;;;;;;;;10436131;28;20056;-72
2022/05/18 11:35:27;;;;;;;8.75;2.08;;;;;;;;;;10440984;28;20055;-71
2022/05/18 11:40:49;;;;;;;4.32;1.58;;;;;;;;;;10415114;28;20049;-72
2022/05/18 11:45:58;;;;;;;5.30;1.60;;;;;;;;;;10441888;28;20041;-70
2022/05/18 11:51:06;;;;;;;5.60;1.58;;;;;;;;;;10422105;28;20114;-72
2022/05/18 11:56:14;;;;;;;5.55;1.50;;;;;;;;;;10412569;28;20559;-71
2022/05/18 12:01:33;;;;;;;6.67;1.63;;;;;;;;;;10440465;28;20050;-71
2022/05/18 12:06:50;;;;;;;5.88;1.67;;;;;;;;;;10435191;28;20106;-72
2022/05/18 12:12:11;;;;;;;4.07;1.50;;;;;;;;;;10431750;28;20041;-71
2022/05/18 12:17:20;;;;;;;4.30;1.70;;;;;;;;;;10435842;28;20100;-72
2022/05/18 12:22:23;;;;;;;4.43;1.83;;;;;;;;;;10420523;28;20055;-71
2022/05/18 12:27:25;;;;;;;7.85;1.83;;;;;;;;;;10422016;28;20045;-70
2022/05/18 12:32:27;;;;;;;7.07;2.58;;;;;;;;;;10435915;28;20046;-70
2022/05/18 12:37:46;;;;;;;5.13;1.48;;;;;;;;;;10441376;28;20080;-71
2022/05/18 12:42:49;;;;;;;2.97;1.67;;;;;;;;;;10421271;28;20053;-71
2022/05/18 12:47:54;;;;;;;3.63;1.20;;;;;;;;;;10431459;28;20044;-70
2022/05/18 12:52:58;;;;;;;8.43;1.75;;;;;;;;;;10421951;28;20049;-70
2022/05/18 12:58:05;;;;;;;2.22;1.25;;;;;;;;;;10427166;28;20523;-73
2022/05/18 13:03:10;;;;;;;4.10;1.70;;;;;;;;;;10443771;28;20209;-70
2022/05/18 13:08:17;;;;;;;4.40;1.85;;;;;;;;;;10438148;28;20080;-71
2022/05/18 13:13:23;;;;;;;6.40;1.70;;;;;;;;;;10419900;28;20048;-69
2022/05/18 13:18:31;;;;;;;5.25;1.58;;;;;;;;;;10426010;28;20417;-71
2022/05/18 13:24:00;;;;;;;4.38;1.85;;;;;;;;;;10429190;28;20085;-71
2022/05/18 13:29:01;;;;;;;;;;;;;;;;;;10429594;28;20160;-69
2022/05/18 13:34:07;;;;;;;4.35;1.67;;;;;;;;;;10432386;28;20045;-70
2022/05/18 13:39:18;;;;;;;5.57;1.73;;;;;;;;;;10424731;28;20417;-70
2022/05/18 13:44:24;;;;;;;4.82;1.80;;;;;;;;;;10420143;28;20047;-70
2022/05/18 13:49:27;;;;;;;5.72;1.80;;;;;;;;;;10441837;28;20048;-72
2022/05/18 13:54:32;;;;;;;4.95;1.80;;;;;;;;;;10439116;28;20052;-72
2022/05/18 13:59:35;;;;;;;5.10;1.98;;;;;;;;;;10433190;28;20041;-73
2022/05/18 14:04:41;;;;;;;8.18;1.75;;;;;;;;;;10432458;28;20044;-71
2022/05/18 14:10:05;;;;;;;7.13;1.80;;;;;;;;;;10418390;28;20140;-73
2022/05/18 14:15:22;;;;;;;4.35;1.90;;;;;;;;;;10437230;28;20120;-73
2022/05/18 14:20:24;;;;;;;5.88;1.80;;;;;;;;;;10437641;28;20067;-72
2022/05/18 14:25:47;;;;;;;5.03;1.80;;;;;;;;;;10439514;28;20052;-73
2022/05/18 14:30:48;;;;;;;5.00;1.83;;;;;;;;;;10440138;28;20048;-73
2022/05/18 14:36:01;;;;;;;3.30;1.75;;;;;;;;;;10449279;28;20056;-73
2022/05/18 14:41:05;;;;;;;8.20;2.30;;;;;;;;;;10405327;28;20740;-72
2022/05/18 14:46:15;;;;;;;5.65;1.75;;;;;;;;;;10436734;28;20041;-70
2022/05/18 14:51:26;;;;;;;4.43;1.80;;;;;;;;;;10434020;28;20103;-69
2022/05/18 14:56:28;;;;;;;5.28;2.10;;;;;;;;;;10432388;28;20036;-72
2022/05/18 15:01:32;;;;;;;3.33;1.50;;;;;;;;;;10429580;28;20049;-70
2022/05/18 15:06:35;;;;;;;8.05;1.90;;;;;;;;;;10415900;28;20052;-70
2022/05/18 15:11:43;;;;;;;4.60;1.70;;;;;;;;;;10424200;28;20447;-70
2022/05/18 15:16:46;;;;;;;6.68;1.75;;;;;;;;;;10438677;28;20037;-70
2022/05/18 15:22:12;;;;;;;6.90;2.58;;;;;;;;;;10436956;28;20060;-73
2022/05/18 15:27:19;;;;;;;4.57;1.80;;;;;;;;;;10435156;28;20149;-73
2022/05/18 15:32:26;;;;;;;3.90;1.80;;;;;;;;;;10433835;28;20037;-73
2022/05/18 15:37:28;;;;;;;8.18;2.47;;;;;;;;;;10431170;28;20734;-69
2022/05/18 15:42:30;;;;;;;6.50;2.13;;;;;;;;;;10434749;28;20121;-69
2022/05/18 15:47:41;;;;;;;9.73;4.22;;;;;;;;;;10433871;28;20132;-71
2022/05/18 15:52:42;;;;;;;7.28;2.00;;;;;;;;;;10413712;28;20064;-70
2022/05/18 15:57:45;;;;;;;7.00;1.95;;;;;;;;;;10440907;28;20052;-70
2022/05/18 16:02:47;;;;;;;5.78;2.10;;;;;;;;;;10433455;28;20049;-72
2022/05/18 16:07:50;;;;;;;5.10;2.00;;;;;;;;;;10434425;28;20269;-71
2022/05/18 16:12:52;;;;;;;6.55;2.20;;;;;;;;;;10439667;28;20044;-72
2022/05/18 16:17:54;;;;;;;9.73;2.40;;;;;;;;;;10424061;28;20591;-74
2022/05/18 16:22:56;;;;;;;4.55;2.17;;;;;;;;;;10434958;28;20045;-74
2022/05/18 16:27:58;;;;;;;7.15;2.40;;;;;;;;;;10435884;28;20072;-75
2022/05/18 16:33:00;;;;;;;8.20;2.72;;;;;;;;;;10435155;28;20501;-74
2022/05/18 16:38:01;;;;;;;7.35;2.22;;;;;;;;;;10440507;28;20211;-73
2022/05/18 16:43:02;;;;;;;27.45;3.08;;;;;;;;;;10436367;28;20056;-74
2022/05/18 16:48:04;;;;;;;4.90;2.38;;;;;;;;;;10424422;28;20041;-73
2022/05/18 16:53:05;;;;;;;5.05;2.22;;;;;;;;;;10419201;28;20064;-74
2022/05/18 16:58:07;;;;;;;6.15;2.50;;;;;;;;;;10424578;28;20045;-74
2022/05/18 17:03:08;;;;;;;7.65;3.00;;;;;;;;;;10448707;28;20761;-74
2022/05/18 17:13:31;;;;;;;7.10;3.00;;;;;;;;;;10431417;28;20046;-73
2022/05/18 17:18:33;;;;;;;6.50;2.88;;;;;;;;;;10444169;28;20144;-74
2022/05/18 17:23:35;;;;;;;7.38;2.97;;;;;;;;;;10419350;28;20048;-74
2022/05/18 17:28:38;;;;;;;6.35;3.15;;;;;;;;;;10435289;28;20044;-73
2022/05/18 17:33:41;;;;;;;5.10;2.67;;;;;;;;;;10426587;28;20105;-74
2022/05/18 17:38:46;;;;;;;7.05;2.80;;;;;;;;;;10451717;28;20079;-74
2022/05/18 17:43:48;;;;;;;7.50;2.88;;;;;;;;;;10427022;28;20048;-73
2022/05/18 17:48:49;;;;;;;8.73;3.30;;;;;;;;;;10425503;28;20319;-73
2022/05/18 17:53:51;;;;;;;6.35;3.10;;;;;;;;;;10456328;28;20618;-73
2022/05/18 17:58:52;;;;;;;8.52;3.58;;;;;;;;;;10447727;28;20053;-73
2022/05/18 18:03:54;;;;;;;7.32;3.42;;;;;;;;;;10463276;28;20083;-74
2022/05/18 18:08:56;;;;;;;10.02;3.63;;;;;;;;;;10441733;28;20051;-74
2022/05/18 18:13:57;;;;;;;9.63;3.65;;;;;;;;;;10435061;28;20532;-73
2022/05/18 18:19:00;;;;;;;9.32;3.80;;;;;;;;;;10428812;28;20114;-72
2022/05/18 18:24:02;;;;;;;9.98;4.63;;;;;;;;;;10446037;28;20049;-72
2022/05/18 18:29:04;;;;;;;9.23;4.90;;;;;;;;;;10445319;28;20037;-74
2022/05/18 18:34:06;;;;;;;11.13;6.20;;;;;;;;;;10449601;28;20570;-73
2022/05/18 18:39:25;;;;;;;13.00;6.65;;;;;;;;;;10434672;28;20049;-73
2022/05/18 18:44:29;;;;;;;12.88;7.40;;;;;;;;;;10460757;28;20045;-73
2022/05/18 18:49:30;;;;;;;17.80;7.32;;;;;;;;;;10427379;28;20053;-74
2022/05/18 18:54:42;;;;;;;18.30;7.38;;;;;;;;;;10454422;28;20080;-73
2022/05/18 18:59:51;;;;;;;13.35;8.13;;;;;;;;;;10429706;28;20129;-72
2022/05/18 19:04:53;;;;;;;13.38;8.38;;;;;;;;;;10445675;28;20083;-73
2022/05/18 19:09:57;;;;;;;13.68;9.02;;;;;;;;;;10447313;28;20681;-72
2022/05/18 19:14:59;;;;;;;17.70;10.38;;;;;;;;;;10452914;28;20116;-74
2022/05/18 19:20:01;;;;;;;15.40;8.13;;;;;;;;;;10440493;28;20041;-73
2022/05/18 19:25:11;;;;;;;17.92;10.38;;;;;;;;;;10455663;28;20159;-73
2022/05/18 19:30:12;;;;;;;;;;;;;;;;;;10447656;28;20123;-73
2022/05/18 19:35:13;;;;;;;16.58;10.45;;;;;;;;;;10451135;28;20387;-73
2022/05/18 19:40:15;;;;;;;23.65;12.35;;;;;;;;;;10432809;28;20040;-73
2022/05/18 19:45:17;;;;;;;19.58;11.60;;;;;;;;;;10446202;28;20575;-72
2022/05/18 19:50:22;;;;;;;18.33;11.48;;;;;;;;;;10436358;28;20047;-73
2022/05/18 19:55:23;;;;;;;20.65;11.65;;;;;;;;;;10442966;28;20059;-73
2022/05/18 20:00:29;;;;;;;19.67;11.50;;;;;;;;;;10454684;28;20044;-73
2022/05/18 20:05:31;;;;;;;18.48;10.95;;;;;;;21.53;nan;102378.66;10459200;28;20059;-74
2022/05/18 20:10:35;;;;;;;16.30;10.70;;;;;;;21.39;nan;102319.16;10447233;28;20048;-73
2022/05/18 20:15:37;;;;;;;16.90;11.02;;;;;;;;;;10451390;28;20052;-74
2022/05/18 20:20:38;;;;;;;17.60;11.40;;;;;;;21.09;nan;102206.53;10429716;28;20048;-73
2022/05/18 20:25:42;;;;;;;17.17;11.60;;;;;;;;;;10452894;28;20171;-73
2022/05/18 20:30:44;;;;;;;19.65;10.10;;;;;;;;;;10446132;28;20348;-73
2022/05/18 20:35:45;;;;;;;17.40;10.90;;;;;;;;;;10456869;28;20048;-73
2022/05/18 20:40:47;;;;;;;17.48;10.57;;;;;;;;;;10435329;28;20051;-73
2022/05/18 20:45:48;;;;;;;19.88;11.55;;;;;;;;;;10450823;28;20049;-74
2022/05/18 20:50:50;;;;;;;16.88;10.75;;;;;;;;;;10420934;28;20061;-73
2022/05/18 20:55:53;;;;;;;19.08;10.77;;;;;;;;;;10437679;28;20041;-73
2022/05/18 21:00:55;;;;;;;18.70;11.38;;;;;;;;;;10450035;28;20056;-73
2022/05/18 21:05:56;;;;;;;19.75;11.00;;;;;;;;;;10452501;28;20467;-73
2022/05/18 21:10:58;;;;;;;16.70;10.57;;;;;;;;;;10446473;28;20095;-73
2022/05/18 21:16:00;;;;;;;18.25;10.38;;;;;;;;;;10433330;28;20053;-73
2022/05/18 21:21:01;;;;;;;20.15;11.10;;;;;;;;;;10426496;28;20068;-73
2022/05/18 21:26:03;;;;;;;16.98;10.20;;;;;;;;;;10414292;28;20537;-72
2022/05/18 21:31:05;;;;;;;21.67;10.35;;;;;;;;;;10438038;28;20061;-73
2022/05/18 21:36:06;;;;;;;14.40;9.38;;;;;;;;;;10438267;28;20045;-73
2022/05/18 21:41:07;;;;;;;15.23;9.63;;;;;;;;;;10433721;28;20155;-72
2022/05/18 21:46:10;;;;;;;15.65;10.57;;;;;;;;;;10434827;28;20054;-75
2022/05/18 21:51:12;;;;;;;18.38;10.13;;;;;;;;;;10446664;28;20049;-73
2022/05/18 21:56:14;;;;;;;16.65;10.68;;;;;;;;;;10421261;28;20065;-73
2022/05/18 22:01:16;;;;;;;19.30;11.23;;;;;;;;;;10439138;28;20392;-73
2022/05/18 22:06:20;;;;;;;17.90;11.30;;;;;;;;;;10447649;28;20053;-73
2022/05/18 22:11:24;;;;;;;19.67;12.23;;;;;;;;;;10382889;28;20497;-73
2022/05/18 22:16:26;;;;;;;23.35;11.80;;;;;;;;;;10427214;28;20043;-73
2022/05/18 22:21:27;;;;;;;18.90;11.20;;;;;;;;;;10437634;28;20468;-73
2022/05/18 22:26:28;;;;;;;22.52;12.90;;;;;;;;;;10446125;28;20073;-73
2022/05/18 22:31:30;;;;;;;21.92;12.23;;;;;;;;;;10445957;28;20045;-73
2022/05/18 22:36:32;;;;;;;21.33;11.40;;;;;;;;;;10438626;28;20049;-73
2022/05/18 22:41:34;;;;;;;19.67;10.52;;;;;;;;;;10419954;28;20045;-73
2022/05/18 22:46:36;;;;;;;17.88;10.57;;;;;;;;;;10431216;28;20055;-73
2022/05/18 22:51:37;;;;;;;17.80;11.10;;;;;;;;;;10419768;28;20104;-74
2022/05/18 22:56:39;;;;;;;18.88;11.05;;;;;;;;;;10437985;28;20137;-73
2022/05/18 23:01:40;;;;;;;19.15;10.00;;;;;;;;;;10437223;28;20054;-73
2022/05/18 23:06:43;;;;;;;18.27;10.73;;;;;;;;;;10450742;28;20127;-73
2022/05/18 23:11:44;;;;;;;18.60;9.90;;;;;;;;;;10445270;28;20424;-73
2022/05/18 23:16:47;;;;;;;22.70;10.32;;;;;;;;;;10453341;28;20037;-73
2022/05/18 23:21:52;;;;;;;16.88;10.18;;;;;;;;;;10433610;28;20052;-74
2022/05/18 23:26:53;;;;;;;16.77;10.23;;;;;;;;;;10428633;28;20140;-73
2022/05/18 23:31:56;;;;;;;19.60;11.45;;;;;;;;;;10433368;28;20039;-73
2022/05/18 23:36:58;;;;;;;18.45;11.88;;;;;;;;;;10452677;28;20494;-74
2022/05/18 23:42:00;;;;;;;17.52;11.43;;;;;;;;;;10434750;28;20455;-73
2022/05/18 23:47:01;;;;;;;20.58;14.57;;;;;;;;;;10452749;28;20109;-73
2022/05/18 23:52:03;;;;;;;24.42;14.70;;;;;;;;;;10450928;28;20053;-73
2022/05/18 23:57:08;;;;;;;24.42;12.68;;;;;;;;;;10446192;28;20120;-73
